createdAt,value
2022-09-12T00:01:44.560Z,6.40
2022-09-12T00:04:14.926Z,6.55
2022-09-12T00:06:45.063Z,7.15
2022-09-12T00:09:16.856Z,6.75
2022-09-12T00:11:48.791Z,7.07
2022-09-12T00:14:20.692Z,7.28
2022-09-12T00:16:51.003Z,6.90
2022-09-12T00:19:21.030Z,6.55
2022-09-12T00:21:50.863Z,8.13
2022-09-12T00:24:21.571Z,7.80
2022-09-12T00:26:51.925Z,7.75
2022-09-12T00:29:23.586Z,7.82
2022-09-12T00:31:53.820Z,5.93
2022-09-12T00:34:24.949Z,7.05
2022-09-12T00:36:55.431Z,7.65
2022-09-12T00:39:26.436Z,7.93
2022-09-12T00:41:56.646Z,8.18
2022-09-12T00:44:26.582Z,7.28
2022-09-12T00:47:02.553Z,8.40
2022-09-12T00:49:40.456Z,8.00
2022-09-12T00:52:22.012Z,7.80
2022-09-12T00:54:55.640Z,7.60
2022-09-12T00:57:29.804Z,7.18
2022-09-12T01:00:17.854Z,7.80
2022-09-12T01:02:56.489Z,7.30
2022-09-12T01:07:58.611Z,7.00
2022-09-12T01:10:29.529Z,7.05
2022-09-12T01:13:00.481Z,8.38
2022-09-12T01:15:30.789Z,7.72
2022-09-12T01:18:32.511Z,7.72
2022-09-12T01:21:06.177Z,8.23
2022-09-12T01:23:39.249Z,7.63
2022-09-12T01:26:46.052Z,7.50
2022-09-12T01:29:34.491Z,7.65
2022-09-12T01:32:38.745Z,7.63
2022-09-12T01:35:24.116Z,7.97
2022-09-12T01:38:13.900Z,7.45
2022-09-12T01:41:31.485Z,8.07
2022-09-12T01:44:25.355Z,7.22
2022-09-12T01:47:11.411Z,7.82
2022-09-12T01:50:04.714Z,7.60
2022-09-12T01:52:43.380Z,7.75
2022-09-12T01:55:21.452Z,8.43
2022-09-12T01:58:06.909Z,7.93
2022-09-12T02:00:47.362Z,7.43
2022-09-12T02:03:22.151Z,8.07
2022-09-12T02:06:16.312Z,7.85
2022-09-12T02:08:55.301Z,7.22
2022-09-12T02:11:26.375Z,7.70
2022-09-12T02:14:04.036Z,6.97
2022-09-12T02:16:41.187Z,6.97
2022-09-12T02:19:24.921Z,7.97
2022-09-12T02:22:01.502Z,6.90
2022-09-12T02:24:40.647Z,7.63
2022-09-12T02:27:43.946Z,6.63
2022-09-12T02:30:18.871Z,7.30
2022-09-12T02:33:03.041Z,7.40
2022-09-12T02:35:50.923Z,7.03
2022-09-12T02:38:46.815Z,6.47
2022-09-12T02:41:21.449Z,6.10
2022-09-12T02:43:54.111Z,6.30
2022-09-12T02:49:11.528Z,6.35
2022-09-12T02:51:42.325Z,7.10
2022-09-12T02:54:14.182Z,6.70
2022-09-12T02:56:45.961Z,6.55
2022-09-12T02:59:20.784Z,6.85
2022-09-12T03:02:00.289Z,7.53
2022-09-12T03:05:00.885Z,6.70
2022-09-12T03:08:07.429Z,6.82
2022-09-12T03:11:23.230Z,6.50
2022-09-12T03:14:29.608Z,6.60
2022-09-12T03:17:20.739Z,6.57
2022-09-12T03:20:23.086Z,7.40
2022-09-12T03:23:01.695Z,6.53
2022-09-12T03:25:37.989Z,6.63
2022-09-12T03:28:17.058Z,7.45
2022-09-12T03:30:49.594Z,6.78
2022-09-12T03:33:22.663Z,6.10
2022-09-12T03:35:54.181Z,6.68
2022-09-12T03:38:24.816Z,6.20
2022-09-12T03:40:55.092Z,6.85
2022-09-12T03:43:25.144Z,6.20
2022-09-12T03:45:55.043Z,6.38
2022-09-12T03:48:25.302Z,5.93
2022-09-12T03:50:55.592Z,5.07
2022-09-12T03:53:25.661Z,5.88
2022-09-12T03:55:55.465Z,5.85
2022-09-12T03:58:26.505Z,6.53
2022-09-12T04:00:57.086Z,5.50
2022-09-12T04:03:27.462Z,6.22
2022-09-12T04:05:59.564Z,5.25
2022-09-12T04:08:30.311Z,5.80
2022-09-12T04:11:08.738Z,5.03
2022-09-12T04:13:40.235Z,5.20
2022-09-12T04:16:11.171Z,5.55
2022-09-12T04:18:42.251Z,5.25
2022-09-12T04:21:17.018Z,5.70
2022-09-12T04:23:47.482Z,5.47
2022-09-12T04:26:19.085Z,5.50
2022-09-12T04:28:50.956Z,5.07
2022-09-12T04:31:24.861Z,6.30
2022-09-12T04:34:02.534Z,5.40
2022-09-12T04:36:33.220Z,4.72
2022-09-12T04:39:04.712Z,4.93
2022-09-12T04:41:38.619Z,4.93
2022-09-12T04:44:13.560Z,5.28
2022-09-12T04:46:46.616Z,4.82
2022-09-12T04:49:18.591Z,5.57
2022-09-12T04:51:49.199Z,5.30
2022-09-12T04:54:21.888Z,4.88
2022-09-12T04:59:23.294Z,4.63
2022-09-12T05:01:53.858Z,4.28
2022-09-12T05:04:24.581Z,3.97
2022-09-12T05:06:54.394Z,4.63
2022-09-12T05:09:24.291Z,4.30
2022-09-12T05:12:09.710Z,4.43
2022-09-12T05:14:40.277Z,4.88
2022-09-12T05:17:10.582Z,4.55
2022-09-12T05:19:40.528Z,4.07
2022-09-12T05:22:11.851Z,4.63
2022-09-12T05:24:48.539Z,4.75
2022-09-12T05:27:21.357Z,5.30
2022-09-12T05:29:51.924Z,4.88
2022-09-12T05:32:22.039Z,4.38
2022-09-12T05:34:52.154Z,4.90
2022-09-12T05:37:22.061Z,4.63
2022-09-12T05:39:52.551Z,4.90
2022-09-12T05:42:22.896Z,4.68
2022-09-12T05:44:53.126Z,4.68
2022-09-12T05:47:23.088Z,4.78
2022-09-12T05:49:53.707Z,4.32
2022-09-12T05:52:23.648Z,4.40
2022-09-12T05:54:53.921Z,4.32
2022-09-12T05:57:24.384Z,4.03
2022-09-12T05:59:54.195Z,4.18
2022-09-12T06:02:24.297Z,3.90
2022-09-12T06:04:54.155Z,3.85
2022-09-12T06:07:24.534Z,3.75
2022-09-12T06:09:54.758Z,4.38
2022-09-12T06:12:24.982Z,4.95
2022-09-12T06:14:55.323Z,3.78
2022-09-12T06:17:25.100Z,4.20
2022-09-12T06:19:55.333Z,4.10
2022-09-12T06:22:25.311Z,4.50
2022-09-12T06:24:58.001Z,3.92
2022-09-12T06:27:28.280Z,3.53
2022-09-12T06:29:58.400Z,4.03
2022-09-12T06:32:31.411Z,3.90
2022-09-12T06:35:01.712Z,4.22
2022-09-12T06:37:34.782Z,4.18
2022-09-12T06:40:05.618Z,4.32
2022-09-12T06:42:35.885Z,4.60
2022-09-12T06:45:06.509Z,4.38
2022-09-12T06:47:36.674Z,4.13
2022-09-12T06:50:07.203Z,4.05
2022-09-12T06:52:37.101Z,4.57
2022-09-12T06:55:07.393Z,4.10
2022-09-12T06:57:40.077Z,4.05
2022-09-12T07:00:31.444Z,4.20
2022-09-12T07:03:02.879Z,3.53
2022-09-12T07:05:35.238Z,4.10
2022-09-12T07:08:05.337Z,4.22
2022-09-12T07:10:35.979Z,3.97
2022-09-12T07:13:06.003Z,4.00
2022-09-12T07:15:37.930Z,3.25
2022-09-12T07:18:08.861Z,3.78
2022-09-12T07:20:39.608Z,3.97
2022-09-12T07:23:09.573Z,4.25
2022-09-12T07:25:39.458Z,4.00
2022-09-12T07:28:09.304Z,3.72
2022-09-12T07:30:39.716Z,3.95
2022-09-12T07:33:10.133Z,4.38
2022-09-12T07:35:40.419Z,3.80
2022-09-12T07:38:10.538Z,4.15
2022-09-12T07:40:40.590Z,3.83
2022-09-12T07:43:10.660Z,3.70
2022-09-12T07:45:43.097Z,3.85
2022-09-12T07:48:14.045Z,3.42
2022-09-12T07:50:45.214Z,3.85
2022-09-12T07:53:15.607Z,3.95
2022-09-12T07:55:45.413Z,4.30
2022-09-12T07:58:15.836Z,4.47
2022-09-12T08:00:47.147Z,3.97
2022-09-12T08:03:17.559Z,4.18
2022-09-12T08:05:47.581Z,4.45
2022-09-12T08:08:17.920Z,4.13
2022-09-12T08:10:48.663Z,4.10
2022-09-12T08:13:18.507Z,3.80
2022-09-12T08:15:48.332Z,3.92
2022-09-12T08:18:18.199Z,4.38
2022-09-12T08:20:49.058Z,4.03
2022-09-12T08:23:19.199Z,3.80
2022-09-12T08:25:49.325Z,3.97
2022-09-12T08:28:19.369Z,4.13
2022-09-12T08:30:49.734Z,3.80
2022-09-12T08:33:20.128Z,3.85
2022-09-12T08:35:50.477Z,4.15
2022-09-12T08:38:20.987Z,3.88
2022-09-12T08:41:11.744Z,4.60
2022-09-12T08:43:54.642Z,3.58
2022-09-12T08:46:58.406Z,4.07
2022-09-12T08:49:43.031Z,5.03
2022-09-12T08:52:43.130Z,5.45
2022-09-12T08:55:36.469Z,4.63
2022-09-12T08:58:22.361Z,4.40
2022-09-12T09:01:16.027Z,4.25
2022-09-12T09:03:52.251Z,4.28
2022-09-12T09:06:38.132Z,4.45
2022-09-12T09:09:40.813Z,4.25
2022-09-12T09:12:39.111Z,4.20
2022-09-12T09:15:24.960Z,4.47
2022-09-12T09:18:03.023Z,4.80
2022-09-12T09:20:58.365Z,4.22
2022-09-12T09:23:44.098Z,4.43
2022-09-12T09:26:19.527Z,4.32
2022-09-12T09:28:54.851Z,4.30
2022-09-12T09:31:28.100Z,4.65
2022-09-12T09:33:58.724Z,4.97
2022-09-12T09:36:47.007Z,4.35
2022-09-12T09:39:23.441Z,3.97
2022-09-12T09:42:11.675Z,4.38
2022-09-12T09:44:42.374Z,4.07
2022-09-12T09:47:13.938Z,4.20
2022-09-12T09:49:44.794Z,4.88
2022-09-12T09:52:22.481Z,4.63
2022-09-12T09:54:58.687Z,4.85
2022-09-12T09:57:38.689Z,4.78
2022-09-12T10:00:33.777Z,4.55
2022-09-12T10:03:15.679Z,5.07
2022-09-12T10:05:55.099Z,4.13
2022-09-12T10:08:31.190Z,4.68
2022-09-12T10:11:19.260Z,5.63
2022-09-12T10:14:02.612Z,5.60
2022-09-12T10:16:55.330Z,5.00
2022-09-12T10:19:40.778Z,5.45
2022-09-12T10:22:21.501Z,5.05
2022-09-12T10:24:58.585Z,5.38
2022-09-12T10:27:35.463Z,5.85
2022-09-12T10:30:18.369Z,5.53
2022-09-12T10:32:53.039Z,4.63
2022-09-12T10:35:44.253Z,5.40
2022-09-12T10:38:25.135Z,5.13
2022-09-12T10:41:04.794Z,6.32
2022-09-12T10:43:42.024Z,5.50
2022-09-12T10:46:18.508Z,5.13
2022-09-12T10:48:54.060Z,6.28
2022-09-12T10:51:27.082Z,6.30
2022-09-12T10:54:01.620Z,7.07
2022-09-12T10:56:40.358Z,6.63
2022-09-12T10:59:28.560Z,6.35
2022-09-12T11:02:29.958Z,7.38
2022-09-12T11:05:06.386Z,6.93
2022-09-12T11:07:49.003Z,6.15
2022-09-12T11:10:25.296Z,5.90
2022-09-12T11:13:01.285Z,6.13
2022-09-12T11:16:01.787Z,6.25
2022-09-12T11:19:04.544Z,6.25
2022-09-12T11:21:40.870Z,6.03
2022-09-12T11:24:45.741Z,6.40
2022-09-12T11:27:57.383Z,5.82
2022-09-12T11:30:28.489Z,5.55
2022-09-12T11:33:26.043Z,5.88
2022-09-12T11:35:58.811Z,5.70
2022-09-12T11:38:59.996Z,4.88
2022-09-12T11:41:37.969Z,7.30
2022-09-12T11:44:17.628Z,5.82
2022-09-12T11:46:51.730Z,5.53
2022-09-12T11:49:35.903Z,7.85
2022-09-12T11:52:42.121Z,5.90
2022-09-12T11:55:22.173Z,5.13
2022-09-12T11:58:01.523Z,5.78
2022-09-12T12:00:58.199Z,5.47
2022-09-12T12:03:48.264Z,5.38
2022-09-12T12:06:47.025Z,5.57
2022-09-12T12:09:18.962Z,5.30
2022-09-12T12:11:57.314Z,5.90
2022-09-12T12:14:39.529Z,6.05
2022-09-12T12:17:21.526Z,6.32
2022-09-12T12:20:08.805Z,6.35
2022-09-12T12:22:39.754Z,6.32
2022-09-12T12:25:29.889Z,5.75
2022-09-12T12:28:07.454Z,6.10
2022-09-12T12:30:38.025Z,6.75
2022-09-12T12:33:16.572Z,6.63
2022-09-12T12:38:32.747Z,5.88
2022-09-12T12:41:21.275Z,6.72
2022-09-12T12:43:57.690Z,6.57
2022-09-12T12:46:29.166Z,6.10
2022-09-12T12:49:28.143Z,6.47
2022-09-12T12:52:04.890Z,6.78
2022-09-12T12:54:37.229Z,6.05
2022-09-12T12:57:31.482Z,5.93
2022-09-12T13:00:10.444Z,5.63
2022-09-12T13:02:51.586Z,6.82
2022-09-12T13:05:25.700Z,6.68
2022-09-12T13:08:11.460Z,6.43
2022-09-12T13:10:52.610Z,6.57
2022-09-12T13:13:47.544Z,7.00
2022-09-12T13:16:40.407Z,7.03
2022-09-12T13:19:18.668Z,8.23
2022-09-12T13:22:01.181Z,9.35
2022-09-12T13:24:32.411Z,7.80
2022-09-12T13:27:03.471Z,10.88
2022-09-12T13:29:33.731Z,9.88
2022-09-12T13:32:04.838Z,7.50
2022-09-12T13:35:03.833Z,6.63
2022-09-12T13:37:56.604Z,6.65
2022-09-12T13:40:37.633Z,7.70
2022-09-12T13:43:16.476Z,7.63
2022-09-12T13:45:48.531Z,6.00
2022-09-12T13:48:26.794Z,7.57
2022-09-12T13:51:03.140Z,7.53
2022-09-12T13:53:47.309Z,7.28
2022-09-12T13:56:20.085Z,7.75
2022-09-12T13:58:58.728Z,8.57
2022-09-12T14:04:44.644Z,6.68
2022-09-12T14:07:22.522Z,7.43
2022-09-12T14:10:01.653Z,7.38
2022-09-12T14:12:45.173Z,7.10
2022-09-12T14:15:25.730Z,8.00
2022-09-12T14:18:01.884Z,7.88
2022-09-12T14:20:34.388Z,7.20
2022-09-12T14:23:17.166Z,8.38
2022-09-12T14:25:49.216Z,8.13
2022-09-12T14:28:23.664Z,7.90
2022-09-12T14:31:28.009Z,7.65
2022-09-12T14:34:19.561Z,8.25
2022-09-12T14:36:56.375Z,8.02
2022-09-12T14:39:42.892Z,8.23
2022-09-12T14:42:23.640Z,7.72
2022-09-12T14:45:24.322Z,7.55
2022-09-12T14:47:55.340Z,8.70
2022-09-12T14:50:28.954Z,7.95
2022-09-12T14:53:09.556Z,8.68
2022-09-12T14:55:55.404Z,8.52
2022-09-12T14:58:27.961Z,8.50
2022-09-12T15:01:24.771Z,8.48
2022-09-12T15:03:57.576Z,8.57
2022-09-12T15:06:33.774Z,8.85
2022-09-12T15:09:10.312Z,9.13
2022-09-12T15:11:40.978Z,8.38
2022-09-12T15:14:18.463Z,9.15
2022-09-12T15:16:48.563Z,8.85
2022-09-12T15:19:18.900Z,8.13
2022-09-12T15:21:49.544Z,8.75
2022-09-12T15:24:19.840Z,8.65
2022-09-12T15:26:49.673Z,8.82
2022-09-12T15:29:19.639Z,9.00
2022-09-12T15:31:52.610Z,8.75
2022-09-12T15:34:23.507Z,8.55
2022-09-12T15:36:53.648Z,8.95
2022-09-12T15:39:23.642Z,8.70
2022-09-12T15:41:53.707Z,8.38
2022-09-12T15:44:24.795Z,8.18
2022-09-12T15:46:55.404Z,8.85
2022-09-12T15:49:25.689Z,8.88
2022-09-12T15:51:55.526Z,8.85
2022-09-12T15:54:25.386Z,8.73
2022-09-12T15:56:56.250Z,9.60
2022-09-12T15:59:26.381Z,10.15
2022-09-12T16:01:56.810Z,9.65
2022-09-12T16:04:28.608Z,10.38
2022-09-12T16:06:59.321Z,8.68
2022-09-12T16:09:29.644Z,8.93
2022-09-12T16:11:59.902Z,9.25
2022-09-12T16:14:29.988Z,11.68
2022-09-12T16:16:59.890Z,10.27
2022-09-12T16:19:29.852Z,9.77
2022-09-12T16:21:59.928Z,10.77
2022-09-12T16:24:30.057Z,11.30
2022-09-12T16:27:01.275Z,10.32
2022-09-12T16:29:31.901Z,9.93
2022-09-12T16:32:02.033Z,10.00
2022-09-12T16:34:31.838Z,9.43
2022-09-12T16:37:02.987Z,10.15
2022-09-12T16:39:35.606Z,10.63
2022-09-12T16:42:06.165Z,9.60
2022-09-12T16:44:36.490Z,8.93
2022-09-12T16:47:06.510Z,9.38
2022-09-12T16:49:36.729Z,9.55
2022-09-12T16:52:07.222Z,9.05
2022-09-12T16:54:37.309Z,8.48
2022-09-12T16:57:07.753Z,8.02
2022-09-12T16:59:37.853Z,7.45
2022-09-12T17:02:08.827Z,7.32
2022-09-12T17:04:39.477Z,8.60
2022-09-12T17:07:10.163Z,7.90
2022-09-12T17:09:40.360Z,6.63
2022-09-12T17:12:10.501Z,6.95
2022-09-12T17:14:41.100Z,7.03
2022-09-12T17:17:11.792Z,6.28
2022-09-12T17:19:41.696Z,6.38
2022-09-12T17:22:12.867Z,5.30
2022-09-12T17:24:43.181Z,5.30
2022-09-12T17:27:13.421Z,5.45
2022-09-12T17:29:43.583Z,4.80
2022-09-12T17:32:17.328Z,5.28
2022-09-12T17:34:47.741Z,4.72
2022-09-12T17:37:18.920Z,4.63
2022-09-12T17:39:49.375Z,5.60
2022-09-12T17:42:20.016Z,5.20
2022-09-12T17:44:50.676Z,4.97
2022-09-12T17:47:20.622Z,4.72
2022-09-12T17:49:51.852Z,5.00
2022-09-12T17:52:22.927Z,5.40
2022-09-12T17:54:53.001Z,5.45
2022-09-12T17:57:22.944Z,5.75
2022-09-12T17:59:52.983Z,5.30
2022-09-12T18:02:23.508Z,5.40
2022-09-12T18:04:53.860Z,5.75
2022-09-12T18:07:25.033Z,5.57
2022-09-12T18:09:56.344Z,5.63
2022-09-12T18:12:28.204Z,5.28
2022-09-12T18:14:58.764Z,5.28
2022-09-12T18:17:28.783Z,6.03
2022-09-12T18:19:58.668Z,6.15
2022-09-12T18:22:28.601Z,6.10
2022-09-12T18:24:58.521Z,5.50
2022-09-12T18:27:28.911Z,5.70
2022-09-12T18:30:19.437Z,5.72
2022-09-12T18:32:49.762Z,6.07
2022-09-12T18:35:19.964Z,6.35
2022-09-12T18:37:50.319Z,6.25
2022-09-12T18:40:20.509Z,6.15
2022-09-12T18:42:50.874Z,6.75
2022-09-12T18:45:21.381Z,5.90
2022-09-12T18:47:51.324Z,6.22
2022-09-12T18:50:21.229Z,6.43
2022-09-12T18:52:57.870Z,6.40
2022-09-12T18:58:00.769Z,5.78
2022-09-12T19:00:30.862Z,5.70
2022-09-12T19:03:01.611Z,6.05
2022-09-12T19:05:32.008Z,6.18
2022-09-12T19:08:02.823Z,6.57
2022-09-12T19:10:32.727Z,5.97
2022-09-12T19:13:04.514Z,5.72
2022-09-12T19:15:35.048Z,6.40
2022-09-12T19:18:05.623Z,6.55
2022-09-12T19:20:38.614Z,6.82
2022-09-12T19:23:08.665Z,5.90
2022-09-12T19:25:38.891Z,6.20
2022-09-12T19:28:09.642Z,7.18
2022-09-12T19:30:42.999Z,6.97
2022-09-12T19:33:15.330Z,7.53
2022-09-12T19:35:45.649Z,7.18
2022-09-12T19:38:16.621Z,7.30
2022-09-12T19:40:48.039Z,7.82
2022-09-12T19:43:18.105Z,7.60
2022-09-12T19:45:51.001Z,7.13
2022-09-12T19:48:22.537Z,7.78
2022-09-12T19:50:53.182Z,7.78
2022-09-12T19:53:23.039Z,7.57
2022-09-12T19:55:53.002Z,7.00
2022-09-12T19:58:23.339Z,7.80
2022-09-12T20:00:54.082Z,7.95
2022-09-12T20:03:25.422Z,8.15
2022-09-12T20:05:55.536Z,8.75
2022-09-12T20:08:25.441Z,7.63
2022-09-12T20:10:58.598Z,7.97
2022-09-12T20:13:29.760Z,7.82
2022-09-12T20:16:11.409Z,7.60
2022-09-12T20:18:41.616Z,8.65
2022-09-12T20:21:17.953Z,7.75
2022-09-12T20:23:49.661Z,8.52
2022-09-12T20:26:21.444Z,8.20
2022-09-12T20:28:53.016Z,8.18
2022-09-12T20:31:24.163Z,8.45
2022-09-12T20:33:54.690Z,8.73
2022-09-12T20:36:25.352Z,9.13
2022-09-12T20:39:04.242Z,8.07
2022-09-12T20:41:37.246Z,8.93
2022-09-12T20:44:07.615Z,8.48
2022-09-12T20:46:38.258Z,9.02
2022-09-12T20:49:10.149Z,9.10
2022-09-12T20:51:40.532Z,9.10
2022-09-12T20:54:11.686Z,9.38
2022-09-12T20:56:42.179Z,9.43
2022-09-12T20:59:14.230Z,10.00
2022-09-12T21:01:45.276Z,8.85
2022-09-12T21:04:15.630Z,9.13
2022-09-12T21:06:45.947Z,9.48
2022-09-12T21:09:16.442Z,9.70
2022-09-12T21:11:46.408Z,9.40
2022-09-12T21:14:16.349Z,9.63
2022-09-12T21:16:47.422Z,9.88
2022-09-12T21:19:18.337Z,10.00
2022-09-12T21:21:48.861Z,10.02
2022-09-12T21:24:18.895Z,10.13
2022-09-12T21:26:48.851Z,10.05
2022-09-12T21:29:19.011Z,10.65
2022-09-12T21:31:48.932Z,11.00
2022-09-12T21:34:20.284Z,10.15
2022-09-12T21:36:50.318Z,10.30
2022-09-12T21:39:20.223Z,10.13
2022-09-12T21:41:51.131Z,9.95
2022-09-12T21:44:21.772Z,9.30
2022-09-12T21:46:51.711Z,9.38
2022-09-12T21:49:21.743Z,9.60
2022-09-12T21:51:52.608Z,9.50
2022-09-12T21:54:22.751Z,9.63
2022-09-12T21:56:53.025Z,9.55
2022-09-12T21:59:23.949Z,9.70
2022-09-12T22:01:55.949Z,10.95
2022-09-12T22:04:27.538Z,9.75
2022-09-12T22:06:58.742Z,10.18
2022-09-12T22:09:29.530Z,10.65
2022-09-12T22:11:59.520Z,9.93
2022-09-12T22:14:29.780Z,9.57
2022-09-12T22:17:00.058Z,10.35
2022-09-12T22:19:30.754Z,10.23
2022-09-12T22:22:19.211Z,9.45
2022-09-12T22:24:49.638Z,10.02
2022-09-12T22:27:20.112Z,8.85
2022-09-12T22:29:54.603Z,9.88
2022-09-12T22:32:25.150Z,9.20
2022-09-12T22:34:55.547Z,9.15
2022-09-12T22:37:25.628Z,9.40
2022-09-12T22:39:56.046Z,9.98
2022-09-12T22:42:26.442Z,9.27
2022-09-12T22:44:56.876Z,10.35
2022-09-12T22:47:28.796Z,11.18
2022-09-12T22:49:58.947Z,10.70
2022-09-12T22:52:29.310Z,9.70
2022-09-12T22:55:00.305Z,10.60
2022-09-12T22:57:30.750Z,10.02
2022-09-12T23:00:00.692Z,10.30
2022-09-12T23:02:30.941Z,10.38
2022-09-12T23:05:01.877Z,10.00
2022-09-12T23:07:32.711Z,10.35
2022-09-12T23:10:02.910Z,9.63
2022-09-12T23:12:33.719Z,9.63
2022-09-12T23:15:03.859Z,9.95
2022-09-12T23:17:35.174Z,11.10
2022-09-12T23:20:06.600Z,9.57
2022-09-12T23:22:38.513Z,10.23
2022-09-12T23:25:09.211Z,9.70
2022-09-12T23:27:41.263Z,10.57
2022-09-12T23:30:13.358Z,10.60
2022-09-12T23:32:43.609Z,9.90
2022-09-12T23:35:14.295Z,10.38
2022-09-12T23:37:44.801Z,10.02
2022-09-12T23:40:15.407Z,9.90
2022-09-12T23:42:45.477Z,10.25
2022-09-12T23:45:15.547Z,10.52
2022-09-12T23:47:45.440Z,10.57
2022-09-12T23:50:15.705Z,10.00
2022-09-12T23:52:45.671Z,10.38
2022-09-12T23:55:15.939Z,9.95
2022-09-12T23:57:45.870Z,10.00
